createdAt,value
2023-03-03T00:01:19.432Z,99444.47
2023-03-03T00:03:47.782Z,99448.66
2023-03-03T00:06:15.787Z,99445.84
2023-03-03T00:08:43.852Z,99446.59
2023-03-03T00:11:12.372Z,99438.91
2023-03-03T00:13:49.311Z,99438.88
2023-03-03T00:16:23.584Z,99436.31
2023-03-03T00:18:51.844Z,99434.66
2023-03-03T00:21:29.582Z,99430.88
2023-03-03T00:24:16.533Z,99430.91
2023-03-03T00:26:51.748Z,99430.94
2023-03-03T00:29:37.286Z,99438.41
2023-03-03T00:32:15.506Z,99436.66
2023-03-03T00:34:44.125Z,99435.56
2023-03-03T00:37:34.893Z,99432.94
2023-03-03T00:40:15.922Z,99433.09
2023-03-03T00:42:49.798Z,99430.34
2023-03-03T00:45:29.779Z,99433.94
2023-03-03T00:47:58.968Z,99430.22
2023-03-03T00:50:30.117Z,99430.66
2023-03-03T00:53:19.362Z,99423.16
2023-03-03T00:55:49.862Z,99429.19
2023-03-03T00:58:22.086Z,99423.72
2023-03-03T01:00:54.742Z,99419.81
2023-03-03T01:03:26.665Z,99419.63
2023-03-03T01:05:55.628Z,99410.22
2023-03-03T01:08:24.395Z,99409.75
2023-03-03T01:10:57.941Z,99413.81
2023-03-03T01:13:29.102Z,99410.22
2023-03-03T01:15:57.186Z,99410.81
2023-03-03T01:18:25.440Z,99406.72
2023-03-03T01:20:53.765Z,99402.03
2023-03-03T01:23:21.951Z,99399.44
2023-03-03T01:25:49.934Z,99405.59
2023-03-03T01:28:18.277Z,99396.12
2023-03-03T01:30:46.576Z,99395.44
2023-03-03T01:33:14.561Z,99400.81
2023-03-03T01:35:46.877Z,99391.34
2023-03-03T01:38:15.636Z,99392.59
2023-03-03T01:40:44.012Z,99382.06
2023-03-03T01:43:16.233Z,99383.37
2023-03-03T01:46:07.763Z,99377.53
2023-03-03T01:48:42.487Z,99378.00
2023-03-03T01:51:24.370Z,99377.00
2023-03-03T01:53:55.706Z,99376.78
2023-03-03T01:56:24.892Z,99377.59
2023-03-03T01:58:53.016Z,99377.72
2023-03-03T02:01:23.860Z,99378.00
2023-03-03T02:03:53.602Z,99371.81
2023-03-03T02:06:29.271Z,99376.75
2023-03-03T02:09:19.771Z,99371.72
2023-03-03T02:11:49.704Z,99375.81
2023-03-03T02:14:17.766Z,99375.69
2023-03-03T02:16:45.967Z,99372.41
2023-03-03T02:19:39.596Z,99371.69
2023-03-03T02:22:07.911Z,99364.88
2023-03-03T02:24:45.550Z,99358.00
2023-03-03T02:27:14.929Z,99370.44
2023-03-03T02:29:43.469Z,99362.81
2023-03-03T02:32:11.712Z,99359.41
2023-03-03T02:34:50.508Z,99370.25
2023-03-03T02:37:19.810Z,99358.06
2023-03-03T02:39:47.872Z,99362.53
2023-03-03T02:42:20.744Z,99359.19
2023-03-03T02:44:49.739Z,99359.19
2023-03-03T02:47:17.677Z,99355.56
2023-03-03T02:49:45.795Z,99357.97
2023-03-03T02:52:15.145Z,99356.97
2023-03-03T02:54:44.482Z,99352.09
2023-03-03T02:57:12.732Z,99346.03
2023-03-03T02:59:41.048Z,99350.34
2023-03-03T03:02:09.398Z,99343.00
2023-03-03T03:04:37.396Z,99349.25
2023-03-03T03:07:05.838Z,99345.75
2023-03-03T03:09:34.252Z,99338.69
2023-03-03T03:12:02.784Z,99339.75
2023-03-03T03:14:31.879Z,99334.62
2023-03-03T03:17:00.072Z,99336.44
2023-03-03T03:19:28.620Z,99337.91
2023-03-03T03:21:58.820Z,99331.97
2023-03-03T03:24:27.410Z,99338.06
2023-03-03T03:26:55.758Z,99323.19
2023-03-03T03:29:24.345Z,99325.31
2023-03-03T03:31:52.326Z,99329.69
2023-03-03T03:34:20.403Z,99326.31
2023-03-03T03:36:49.952Z,99322.31
2023-03-03T03:39:18.062Z,99319.62
2023-03-03T03:41:46.645Z,99316.78
2023-03-03T03:44:15.034Z,99312.72
2023-03-03T03:46:43.650Z,99319.69
2023-03-03T03:49:11.852Z,99320.00
2023-03-03T03:51:42.232Z,99314.97
2023-03-03T03:54:11.160Z,99312.34
2023-03-03T03:56:39.661Z,99318.69
2023-03-03T03:59:09.199Z,99313.63
2023-03-03T04:01:37.588Z,99314.72
2023-03-03T04:04:06.206Z,99302.53
2023-03-03T04:06:35.138Z,99305.25
2023-03-03T04:09:04.220Z,99304.88
2023-03-03T04:11:32.828Z,99308.72
2023-03-03T04:14:00.818Z,99301.81
2023-03-03T04:16:28.914Z,99301.69
2023-03-03T04:18:57.363Z,99302.53
2023-03-03T04:21:25.515Z,99305.25
2023-03-03T04:23:54.375Z,99298.34
2023-03-03T04:26:22.864Z,99296.56
2023-03-03T04:28:50.924Z,99299.75
2023-03-03T04:31:20.798Z,99297.38
2023-03-03T04:33:49.375Z,99298.94
2023-03-03T04:36:18.076Z,99294.59
2023-03-03T04:38:46.284Z,99294.56
2023-03-03T04:41:14.751Z,99296.16
2023-03-03T04:43:43.085Z,99302.84
2023-03-03T04:46:12.539Z,99295.50
2023-03-03T04:48:40.965Z,99291.53
2023-03-03T04:51:08.934Z,99288.88
2023-03-03T04:53:38.555Z,99290.47
2023-03-03T04:56:07.673Z,99291.22
2023-03-03T04:58:35.755Z,99285.28
2023-03-03T05:01:04.082Z,99290.53
2023-03-03T05:03:33.169Z,99290.50
2023-03-03T05:06:01.234Z,99294.97
2023-03-03T05:08:29.172Z,99294.94
2023-03-03T05:10:59.776Z,99296.75
2023-03-03T05:13:27.774Z,99295.09
2023-03-03T05:15:56.639Z,99296.81
2023-03-03T05:18:25.763Z,99289.88
2023-03-03T05:20:54.452Z,99291.66
2023-03-03T05:23:22.551Z,99295.72
2023-03-03T05:25:51.454Z,99295.03
2023-03-03T05:28:19.440Z,99301.03
2023-03-03T05:30:47.614Z,99303.44
2023-03-03T05:33:17.220Z,99300.69
2023-03-03T05:35:45.765Z,99298.31
2023-03-03T05:38:13.753Z,99300.00
2023-03-03T05:40:42.084Z,99297.47
2023-03-03T05:43:10.182Z,99305.13
2023-03-03T05:45:38.070Z,99306.97
2023-03-03T05:48:06.400Z,99306.97
2023-03-03T05:50:34.363Z,99308.41
2023-03-03T05:53:02.352Z,99312.16
2023-03-03T05:55:31.054Z,99312.94
2023-03-03T05:57:59.032Z,99309.09
2023-03-03T06:00:27.093Z,99311.31
2023-03-03T06:02:55.571Z,99317.41
2023-03-03T06:05:23.557Z,99316.09
2023-03-03T06:07:51.671Z,99309.44
2023-03-03T06:10:20.228Z,99317.94
2023-03-03T06:12:48.973Z,99320.41
2023-03-03T06:15:17.028Z,99323.44
2023-03-03T06:17:45.736Z,99330.56
2023-03-03T06:20:13.761Z,99324.84
2023-03-03T06:22:41.887Z,99319.75
2023-03-03T06:25:10.259Z,99324.97
2023-03-03T06:27:38.216Z,99325.59
2023-03-03T06:30:07.025Z,99323.81
2023-03-03T06:32:35.399Z,99337.94
2023-03-03T06:35:03.534Z,99334.44
2023-03-03T06:37:31.614Z,99336.19
2023-03-03T06:40:00.116Z,99334.38
2023-03-03T06:42:28.201Z,99332.88
2023-03-03T06:44:56.211Z,99327.75
2023-03-03T06:47:24.590Z,99334.69
2023-03-03T06:49:52.560Z,99337.34
2023-03-03T06:52:25.672Z,99334.88
2023-03-03T06:54:59.380Z,99329.59
2023-03-03T06:57:29.952Z,99339.84
2023-03-03T07:00:17.153Z,99341.69
2023-03-03T07:02:45.158Z,99341.66
2023-03-03T07:05:16.632Z,99345.09
2023-03-03T07:07:45.263Z,99354.59
2023-03-03T07:10:21.828Z,99351.19
2023-03-03T07:12:50.383Z,99356.28
2023-03-03T07:15:35.166Z,99355.63
2023-03-03T07:18:05.351Z,99361.63
2023-03-03T07:20:36.989Z,99359.84
2023-03-03T07:23:27.492Z,99360.81
2023-03-03T07:25:55.878Z,99369.44
2023-03-03T07:28:29.411Z,99374.56
2023-03-03T07:30:58.322Z,99372.88
2023-03-03T07:33:34.748Z,99379.78
2023-03-03T07:36:04.281Z,99370.28
2023-03-03T07:38:38.016Z,99375.41
2023-03-03T07:41:13.158Z,99380.69
2023-03-03T07:44:17.553Z,99373.78
2023-03-03T07:46:48.464Z,99373.75
2023-03-03T07:49:38.287Z,99378.13
2023-03-03T07:52:26.950Z,99380.69
2023-03-03T07:54:57.867Z,99379.81
2023-03-03T07:57:28.911Z,99388.47
2023-03-03T08:00:16.789Z,99393.66
2023-03-03T08:02:48.242Z,99388.47
2023-03-03T08:05:28.311Z,99391.06
2023-03-03T08:08:09.382Z,99380.69
2023-03-03T08:10:43.819Z,99387.62
2023-03-03T08:13:22.972Z,99384.84
2023-03-03T08:16:05.359Z,99385.91
2023-03-03T08:18:36.850Z,99388.47
2023-03-03T08:21:16.486Z,99388.47
2023-03-03T08:23:45.049Z,99385.72
2023-03-03T08:26:14.283Z,99388.44
2023-03-03T08:28:42.292Z,99383.28
2023-03-03T08:31:20.196Z,99384.16
2023-03-03T08:33:53.482Z,99391.03
2023-03-03T08:36:22.079Z,99388.47
2023-03-03T08:38:50.124Z,99386.75
2023-03-03T08:41:18.140Z,99391.06
2023-03-03T08:43:46.549Z,99386.75
2023-03-03T08:46:14.719Z,99390.22
2023-03-03T08:48:42.696Z,99387.62
2023-03-03T08:51:11.046Z,99384.19
2023-03-03T08:53:38.996Z,99383.22
2023-03-03T08:56:07.296Z,99383.19
2023-03-03T08:58:37.305Z,99390.19
2023-03-03T09:01:05.765Z,99389.38
2023-03-03T09:03:33.811Z,99397.13
2023-03-03T09:06:02.606Z,99383.19
2023-03-03T09:08:30.814Z,99383.31
2023-03-03T09:10:59.446Z,99388.34
2023-03-03T09:13:29.859Z,99381.44
2023-03-03T09:16:00.162Z,99379.69
2023-03-03T09:18:36.033Z,99384.88
2023-03-03T09:21:24.277Z,99381.41
2023-03-03T09:24:00.402Z,99381.00
2023-03-03T09:26:46.251Z,99382.97
2023-03-03T09:29:14.570Z,99380.53
2023-03-03T09:31:51.565Z,99372.50
2023-03-03T09:34:28.184Z,99379.72
2023-03-03T09:36:56.666Z,99380.78
2023-03-03T09:39:27.068Z,99386.53
2023-03-03T09:42:07.280Z,99387.31
2023-03-03T09:44:53.705Z,99387.94
2023-03-03T09:47:54.285Z,99381.19
2023-03-03T09:50:26.909Z,99382.72
2023-03-03T09:53:08.421Z,99383.41
2023-03-03T09:55:58.093Z,99387.62
2023-03-03T09:58:56.819Z,99373.53
2023-03-03T10:01:58.871Z,99372.00
2023-03-03T10:05:15.995Z,99381.31
2023-03-03T10:08:09.037Z,99365.34
2023-03-03T10:10:42.389Z,99365.88
2023-03-03T10:13:34.514Z,99370.53
2023-03-03T10:16:20.331Z,99367.91
2023-03-03T10:19:15.702Z,99374.88
2023-03-03T10:21:52.206Z,99371.88
2023-03-03T10:24:44.475Z,99377.56
2023-03-03T10:27:50.432Z,99364.53
2023-03-03T10:30:54.787Z,99359.19
2023-03-03T10:33:53.565Z,99354.38
2023-03-03T10:36:46.392Z,99349.88
2023-03-03T10:39:41.371Z,99346.53
2023-03-03T10:42:47.815Z,99353.53
2023-03-03T10:45:23.399Z,99346.53
2023-03-03T10:48:04.755Z,99346.00
2023-03-03T10:51:13.421Z,99341.53
2023-03-03T10:53:58.623Z,99336.19
2023-03-03T10:56:53.765Z,99347.50
2023-03-03T11:00:01.329Z,99337.22
2023-03-03T11:02:53.785Z,99334.34
2023-03-03T11:05:29.322Z,99331.72
2023-03-03T11:08:16.453Z,99331.72
2023-03-03T11:10:54.476Z,99327.72
2023-03-03T11:13:42.724Z,99330.56
2023-03-03T11:16:27.388Z,99328.44
2023-03-03T11:19:11.638Z,99313.22
2023-03-03T11:22:12.414Z,99320.56
2023-03-03T11:24:56.124Z,99310.44
2023-03-03T11:27:55.389Z,99306.25
2023-03-03T11:30:40.150Z,99304.19
2023-03-03T11:33:42.465Z,99304.34
2023-03-03T11:36:22.444Z,99293.28
2023-03-03T11:39:00.513Z,99298.13
2023-03-03T11:41:43.982Z,99294.25
2023-03-03T11:44:18.410Z,99284.34
2023-03-03T11:47:04.815Z,99293.50
2023-03-03T11:50:06.151Z,99285.28
2023-03-03T11:52:37.290Z,99283.13
2023-03-03T11:55:23.655Z,99284.31
2023-03-03T11:58:20.716Z,99284.59
2023-03-03T12:01:04.065Z,99282.63
2023-03-03T12:03:40.124Z,99283.34
2023-03-03T12:06:30.869Z,99277.09
2023-03-03T12:09:08.761Z,99280.12
2023-03-03T12:11:56.487Z,99280.41
2023-03-03T12:14:55.001Z,99277.94
2023-03-03T12:17:37.741Z,99266.97
2023-03-03T12:20:24.701Z,99264.66
2023-03-03T12:23:13.521Z,99262.91
2023-03-03T12:26:06.385Z,99257.69
2023-03-03T12:29:16.316Z,99258.09
2023-03-03T12:31:47.894Z,99253.94
2023-03-03T12:34:36.544Z,99252.69
2023-03-03T12:37:26.098Z,99252.88
2023-03-03T12:40:04.529Z,99251.44
2023-03-03T12:42:59.000Z,99253.94
2023-03-03T12:45:50.689Z,99245.19
2023-03-03T12:48:47.538Z,99246.41
2023-03-03T12:51:27.661Z,99244.09
2023-03-03T12:54:21.678Z,99255.84
2023-03-03T12:56:59.260Z,99252.19
2023-03-03T12:59:37.009Z,99248.81
2023-03-03T13:02:30.421Z,99248.41
2023-03-03T13:05:56.513Z,99242.97
2023-03-03T13:08:55.213Z,99230.25
2023-03-03T13:11:36.308Z,99230.34
2023-03-03T13:14:31.485Z,99236.69
2023-03-03T13:17:24.612Z,99240.09
2023-03-03T13:20:02.940Z,99236.22
2023-03-03T13:22:39.115Z,99229.41
2023-03-03T13:25:07.316Z,99225.84
2023-03-03T13:27:41.223Z,99229.25
2023-03-03T13:30:17.549Z,99222.16
2023-03-03T13:33:04.526Z,99221.38
2023-03-03T13:35:41.633Z,99227.75
2023-03-03T13:38:21.367Z,99219.00
2023-03-03T13:40:52.245Z,99221.16
2023-03-03T13:43:30.834Z,99210.28
2023-03-03T13:46:36.568Z,99216.72
2023-03-03T13:49:26.600Z,99207.00
2023-03-03T13:51:57.554Z,99208.22
2023-03-03T13:54:52.862Z,99204.44
2023-03-03T13:57:30.016Z,99199.53
2023-03-03T14:00:13.973Z,99196.84
2023-03-03T14:02:42.747Z,99196.72
2023-03-03T14:05:29.577Z,99196.53
2023-03-03T14:07:59.668Z,99204.00
2023-03-03T14:10:59.675Z,99196.34
2023-03-03T14:13:35.538Z,99189.56
2023-03-03T14:16:26.616Z,99202.78
2023-03-03T14:19:06.745Z,99185.72
2023-03-03T14:21:41.578Z,99190.69
2023-03-03T14:24:19.629Z,99188.25
2023-03-03T14:26:55.561Z,99182.78
2023-03-03T14:29:27.318Z,99182.53
2023-03-03T14:31:56.849Z,99181.47
2023-03-03T14:34:43.569Z,99176.03
2023-03-03T14:37:29.407Z,99176.44
2023-03-03T14:40:10.165Z,99178.94
2023-03-03T14:42:49.799Z,99169.78
2023-03-03T14:45:32.595Z,99168.53
2023-03-03T14:48:17.519Z,99163.34
2023-03-03T14:50:55.140Z,99167.22
2023-03-03T14:53:33.152Z,99177.53
2023-03-03T14:56:26.281Z,99172.09
2023-03-03T14:59:18.702Z,99172.66
2023-03-03T15:01:51.600Z,99176.09
2023-03-03T15:04:28.156Z,99181.28
2023-03-03T15:06:58.453Z,99177.34
2023-03-03T15:09:45.780Z,99174.72
2023-03-03T15:12:26.685Z,99177.56
2023-03-03T15:15:10.854Z,99180.13
2023-03-03T15:17:42.361Z,99171.69
2023-03-03T15:20:21.656Z,99177.28
2023-03-03T15:22:53.658Z,99169.16
2023-03-03T15:25:49.131Z,99184.28
2023-03-03T15:28:37.107Z,99184.63
2023-03-03T15:31:39.197Z,99183.56
2023-03-03T15:34:34.947Z,99189.06
2023-03-03T15:37:15.429Z,99191.81
2023-03-03T15:40:01.047Z,99185.66
2023-03-03T15:42:48.646Z,99190.34
2023-03-03T15:45:33.944Z,99188.56
2023-03-03T15:48:20.696Z,99190.38
2023-03-03T15:51:01.251Z,99199.69
2023-03-03T15:53:42.933Z,99196.91
2023-03-03T15:56:11.995Z,99196.91
2023-03-03T15:58:52.196Z,99205.31
2023-03-03T16:01:28.017Z,99203.94
2023-03-03T16:04:00.300Z,99203.13
2023-03-03T16:06:38.432Z,99208.66
2023-03-03T16:09:32.192Z,99212.69
2023-03-03T16:12:07.852Z,99211.25
2023-03-03T16:14:36.258Z,99210.47
2023-03-03T16:17:28.984Z,99221.66
2023-03-03T16:20:10.527Z,99221.41
2023-03-03T16:22:50.067Z,99216.69
2023-03-03T16:25:32.256Z,99222.00
2023-03-03T16:28:14.545Z,99222.72
2023-03-03T16:30:54.972Z,99229.66
2023-03-03T16:33:31.788Z,99227.25
2023-03-03T16:36:09.005Z,99232.41
2023-03-03T16:39:04.321Z,99231.31
2023-03-03T16:41:41.908Z,99237.16
2023-03-03T16:44:25.105Z,99240.53
2023-03-03T16:46:54.209Z,99234.38
2023-03-03T16:49:39.738Z,99234.75
2023-03-03T16:52:12.749Z,99242.69
2023-03-03T16:54:59.662Z,99255.19
2023-03-03T16:57:48.249Z,99251.91
2023-03-03T17:00:24.630Z,99252.66
2023-03-03T17:03:10.196Z,99259.69
2023-03-03T17:05:47.235Z,99265.69
2023-03-03T17:08:33.818Z,99259.72
2023-03-03T17:11:06.549Z,99260.47
2023-03-03T17:14:16.280Z,99257.81
2023-03-03T17:17:22.798Z,99269.97
2023-03-03T17:20:04.639Z,99257.97
2023-03-03T17:22:53.347Z,99266.59
2023-03-03T17:25:23.938Z,99265.72
2023-03-03T17:28:10.908Z,99269.25
2023-03-03T17:30:59.680Z,99268.38
2023-03-03T17:33:30.519Z,99262.31
2023-03-03T17:36:04.761Z,99271.75
2023-03-03T17:39:02.222Z,99260.41
2023-03-03T17:42:09.451Z,99263.78
2023-03-03T17:45:06.775Z,99263.63
2023-03-03T17:47:56.626Z,99262.50
2023-03-03T17:50:36.334Z,99260.84
2023-03-03T17:53:15.781Z,99269.44
2023-03-03T17:55:56.057Z,99259.31
2023-03-03T17:59:12.615Z,99260.34
2023-03-03T18:02:18.709Z,99263.03
2023-03-03T18:05:05.649Z,99269.16
2023-03-03T18:08:01.583Z,99280.47
2023-03-03T18:11:06.745Z,99274.44
2023-03-03T18:13:55.060Z,99277.00
2023-03-03T18:16:49.560Z,99282.97
2023-03-03T18:19:49.296Z,99277.84
2023-03-03T18:22:22.388Z,99274.41
2023-03-03T18:24:50.342Z,99277.84
2023-03-03T18:27:24.745Z,99275.28
2023-03-03T18:30:11.185Z,99273.50
2023-03-03T18:32:48.585Z,99272.72
2023-03-03T18:35:25.947Z,99274.41
2023-03-03T18:37:55.567Z,99273.56
2023-03-03T18:40:33.764Z,99270.09
2023-03-03T18:43:40.525Z,99270.97
2023-03-03T18:46:31.695Z,99272.69
2023-03-03T18:49:08.825Z,99278.72
2023-03-03T18:51:39.816Z,99276.13
2023-03-03T18:54:26.559Z,99275.28
2023-03-03T18:56:57.210Z,99283.06
2023-03-03T18:59:31.698Z,99276.16
2023-03-03T19:02:18.473Z,99280.44
2023-03-03T19:05:12.814Z,99282.19
2023-03-03T19:07:40.751Z,99280.41
2023-03-03T19:10:21.784Z,99274.41
2023-03-03T19:12:53.684Z,99292.53
2023-03-03T19:15:30.305Z,99286.50
2023-03-03T19:18:15.456Z,99292.53
2023-03-03T19:20:50.566Z,99291.66
2023-03-03T19:23:25.407Z,99293.41
2023-03-03T19:26:24.924Z,99295.16
2023-03-03T19:28:59.787Z,99301.19
2023-03-03T19:31:47.777Z,99296.03
2023-03-03T19:34:42.135Z,99296.84
2023-03-03T19:37:28.925Z,99298.50
2023-03-03T19:40:28.105Z,99297.66
2023-03-03T19:43:23.957Z,99299.44
2023-03-03T19:46:23.856Z,99301.13
2023-03-03T19:49:07.878Z,99302.81
2023-03-03T19:51:45.152Z,99301.84
2023-03-03T19:54:39.928Z,99298.41
2023-03-03T19:57:17.804Z,99302.66
2023-03-03T19:59:57.742Z,99294.75
2023-03-03T20:02:41.940Z,99300.78
2023-03-03T20:05:41.435Z,99307.22
2023-03-03T20:08:11.321Z,99307.56
2023-03-03T20:10:42.663Z,99302.88
2023-03-03T20:13:19.830Z,99309.75
2023-03-03T20:15:52.840Z,99309.44
2023-03-03T20:18:25.203Z,99316.66
2023-03-03T20:20:56.812Z,99315.59
2023-03-03T20:23:42.174Z,99311.75
2023-03-03T20:26:42.497Z,99312.81
2023-03-03T20:29:27.421Z,99315.41
2023-03-03T20:32:11.836Z,99316.03
2023-03-03T20:35:02.629Z,99325.25
2023-03-03T20:37:44.775Z,99319.69
2023-03-03T20:40:40.407Z,99321.75
2023-03-03T20:43:27.585Z,99320.84
2023-03-03T20:46:33.360Z,99325.25
2023-03-03T20:49:30.330Z,99321.63
2023-03-03T20:52:33.730Z,99320.16
2023-03-03T20:55:10.817Z,99328.34
2023-03-03T20:57:56.591Z,99317.19
2023-03-03T21:00:27.961Z,99325.47
2023-03-03T21:03:31.392Z,99320.31
2023-03-03T21:06:02.842Z,99315.78
2023-03-03T21:08:55.042Z,99319.53
2023-03-03T21:11:32.628Z,99311.53
2023-03-03T21:14:18.204Z,99317.50
2023-03-03T21:16:47.189Z,99318.59
2023-03-03T21:19:26.164Z,99317.72
2023-03-03T21:21:54.907Z,99311.84
2023-03-03T21:24:23.190Z,99312.12
2023-03-03T21:26:59.327Z,99310.84
2023-03-03T21:29:31.428Z,99308.66
2023-03-03T21:32:01.569Z,99301.97
2023-03-03T21:34:42.378Z,99310.50
2023-03-03T21:37:15.688Z,99313.84
2023-03-03T21:39:44.737Z,99317.00
2023-03-03T21:42:19.493Z,99308.66
2023-03-03T21:44:50.055Z,99310.00
2023-03-03T21:47:23.346Z,99314.25
2023-03-03T21:49:52.524Z,99312.31
2023-03-03T21:52:22.484Z,99318.66
2023-03-03T21:54:52.075Z,99323.03
2023-03-03T21:57:20.496Z,99308.97
2023-03-03T21:59:48.429Z,99320.03
2023-03-03T22:02:16.627Z,99319.34
2023-03-03T22:04:45.015Z,99316.75
2023-03-03T22:07:13.199Z,99326.97
2023-03-03T22:09:41.067Z,99325.75
2023-03-03T22:12:09.435Z,99325.56
2023-03-03T22:14:37.377Z,99325.66
2023-03-03T22:17:05.567Z,99322.22
2023-03-03T22:19:34.506Z,99325.75
2023-03-03T22:22:02.456Z,99331.50
2023-03-03T22:24:30.722Z,99334.00
2023-03-03T22:26:59.168Z,99333.38
2023-03-03T22:29:27.157Z,99333.25
2023-03-03T22:31:55.170Z,99329.75
2023-03-03T22:34:23.634Z,99330.81
2023-03-03T22:36:51.547Z,99336.69
2023-03-03T22:39:19.512Z,99333.84
2023-03-03T22:41:47.859Z,99329.94
2023-03-03T22:44:15.811Z,99331.09
2023-03-03T22:46:43.746Z,99333.59
2023-03-03T22:49:12.100Z,99333.13
2023-03-03T22:51:40.052Z,99334.53
2023-03-03T22:54:08.010Z,99331.25
2023-03-03T22:56:36.384Z,99337.37
2023-03-03T22:59:04.468Z,99333.19
2023-03-03T23:01:32.485Z,99335.97
2023-03-03T23:04:00.871Z,99332.13
2023-03-03T23:06:28.842Z,99338.97
2023-03-03T23:08:56.760Z,99330.34
2023-03-03T23:11:25.546Z,99333.34
2023-03-03T23:13:53.797Z,99328.75
2023-03-03T23:16:21.769Z,99332.47
2023-03-03T23:18:50.216Z,99326.03
2023-03-03T23:21:18.229Z,99325.91
2023-03-03T23:23:46.324Z,99330.37
2023-03-03T23:26:14.620Z,99329.16
2023-03-03T23:28:42.551Z,99324.03
2023-03-03T23:31:10.668Z,99328.53
2023-03-03T23:33:38.997Z,99325.78
2023-03-03T23:36:07.482Z,99323.19
2023-03-03T23:38:35.547Z,99328.84
2023-03-03T23:41:03.941Z,99328.63
2023-03-03T23:43:32.017Z,99326.47
2023-03-03T23:45:59.958Z,99326.19
2023-03-03T23:48:28.288Z,99322.53
2023-03-03T23:50:56.237Z,99323.72
2023-03-03T23:53:24.164Z,99316.88
2023-03-03T23:55:52.546Z,99314.19
2023-03-03T23:58:20.505Z,99315.34
